createdAt,value
2018-04-25T00:00:46.119Z,100517.50
2018-04-25T00:05:40.558Z,100503.47
2018-04-25T00:10:35.073Z,100488.46
2018-04-25T00:15:29.449Z,100481.45
2018-04-25T00:20:23.864Z,100476.66
2018-04-25T00:25:18.960Z,100467.88
2018-04-25T00:30:13.546Z,100469.78
2018-04-25T00:35:08.694Z,100458.80
2018-04-25T00:40:03.072Z,100448.59
2018-04-25T00:44:58.229Z,100441.48
2018-04-25T00:49:52.634Z,100435.84
2018-04-25T00:54:47.001Z,100431.19
2018-04-25T00:59:42.163Z,100432.12
2018-04-25T01:04:36.506Z,100426.42
2018-04-25T01:09:30.888Z,100419.63
2018-04-25T01:14:25.318Z,100403.05
2018-04-25T01:19:19.702Z,100403.12
2018-04-25T01:24:13.555Z,100407.84
2018-04-25T01:29:07.992Z,100406.25
2018-04-25T01:34:12.808Z,100406.44
2018-04-25T01:39:25.860Z,100398.98
2018-04-25T01:44:38.922Z,100403.45
2018-04-25T01:49:36.846Z,100403.16
2018-04-25T01:54:49.334Z,100401.88
2018-04-25T02:00:00.712Z,100396.87
2018-04-25T02:04:55.097Z,100405.01
2018-04-25T02:09:49.475Z,100395.17
2018-04-25T02:14:44.377Z,100394.88
2018-04-25T02:19:38.849Z,100391.78
2018-04-25T02:24:33.216Z,100385.38
2018-04-25T02:29:27.569Z,100377.52
2018-04-25T02:34:21.962Z,100380.91
2018-04-25T02:39:16.354Z,100386.55
2018-04-25T02:44:10.471Z,100387.45
2018-04-25T02:49:04.847Z,100382.20
2018-04-25T02:53:59.208Z,100385.52
2018-04-25T02:58:54.437Z,100372.18
2018-04-25T03:03:48.935Z,100371.53
2018-04-25T03:08:44.064Z,100376.18
2018-04-25T03:13:39.265Z,100372.98
2018-04-25T03:18:33.688Z,100370.11
2018-04-25T03:23:28.852Z,100368.61
2018-04-25T03:28:23.228Z,100367.92
2018-04-25T03:33:21.622Z,100367.23
2018-04-25T03:38:15.990Z,100362.02
2018-04-25T03:43:10.553Z,100374.97
2018-04-25T03:48:05.031Z,100362.58
2018-04-25T03:52:59.407Z,100361.77
2018-04-25T03:57:54.069Z,100370.41
2018-04-25T04:02:48.467Z,100372.42
2018-04-25T04:07:43.351Z,100377.50
2018-04-25T04:12:37.834Z,100374.58
2018-04-25T04:17:32.294Z,100378.92
2018-04-25T04:22:26.709Z,100372.47
2018-04-25T04:27:21.107Z,100377.28
2018-04-25T04:32:15.550Z,100390.06
2018-04-25T04:37:09.945Z,100391.06
2018-04-25T04:42:04.324Z,100394.53
2018-04-25T04:46:58.708Z,100396.04
2018-04-25T04:51:54.775Z,100400.44
2018-04-25T04:56:49.188Z,100394.44
2018-04-25T05:01:43.565Z,100397.38
2018-04-25T05:06:37.918Z,100400.05
2018-04-25T05:11:32.304Z,100405.59
2018-04-25T05:16:26.799Z,100400.22
2018-04-25T05:21:21.201Z,100402.84
2018-04-25T05:26:15.564Z,100414.89
2018-04-25T05:31:09.958Z,100408.86
2018-04-25T05:36:05.115Z,100414.09
2018-04-25T05:40:59.495Z,100407.25
2018-04-25T05:45:53.959Z,100415.43
2018-04-25T05:50:49.246Z,100425.80
2018-04-25T05:55:43.626Z,100430.71
2018-04-25T06:00:38.049Z,100426.48
2018-04-25T06:05:32.449Z,100434.72
2018-04-25T06:10:27.932Z,100440.57
2018-04-25T06:15:22.593Z,100453.82
2018-04-25T06:20:16.946Z,100453.53
2018-04-25T06:25:11.780Z,100462.53
2018-04-25T06:30:06.926Z,100467.34
2018-04-25T06:35:01.307Z,100477.49
2018-04-25T06:39:55.682Z,100485.05
2018-04-25T06:44:50.181Z,100492.75
2018-04-25T06:49:44.675Z,100504.16
2018-04-25T06:54:39.204Z,100494.63
2018-04-25T06:59:34.378Z,100494.55
2018-04-25T07:04:28.783Z,100502.91
2018-04-25T07:09:23.185Z,100493.16
2018-04-25T07:14:17.736Z,100496.87
2018-04-25T07:19:12.881Z,100501.73
2018-04-25T07:24:07.413Z,100501.44
2018-04-25T07:29:01.820Z,100516.34
2018-04-25T07:33:56.220Z,100516.46
2018-04-25T07:38:50.599Z,100521.87
2018-04-25T07:43:45.806Z,100530.88
2018-04-25T07:48:41.085Z,100535.98
2018-04-25T07:53:35.457Z,100534.94
2018-04-25T07:58:29.849Z,100540.44
2018-04-25T08:03:24.246Z,100529.53
2018-04-25T08:08:19.390Z,100531.22
2018-04-25T08:13:30.934Z,100551.00
2018-04-25T08:34:44.654Z,100574.59
2018-04-25T08:39:38.996Z,100581.31
2018-04-25T08:44:33.384Z,100587.52
2018-04-25T08:49:27.801Z,100597.18
2018-04-25T08:54:22.192Z,100600.22
2018-04-25T08:59:17.550Z,100592.38
2018-04-25T09:04:12.806Z,100592.36
2018-04-25T09:09:07.204Z,100597.46
2018-04-25T09:14:02.412Z,100595.93
2018-04-25T09:18:57.556Z,100598.88
2018-04-25T09:23:51.925Z,100604.25
2018-04-25T09:28:46.381Z,100604.69
2018-04-25T09:33:40.769Z,100599.13
2018-04-25T09:38:35.190Z,100605.31
2018-04-25T09:43:30.857Z,100598.80
2018-04-25T09:48:25.474Z,100595.65
2018-04-25T09:53:20.193Z,100595.11
2018-04-25T09:58:14.867Z,100588.22
2018-04-25T10:03:14.506Z,100590.31
2018-04-25T10:08:08.865Z,100614.57
2018-04-25T10:13:03.240Z,100619.18
2018-04-25T10:17:58.378Z,100625.20
2018-04-25T10:22:52.769Z,100637.43
2018-04-25T10:27:47.929Z,100654.63
2018-04-25T10:32:42.339Z,100652.58
2018-04-25T10:37:36.653Z,100663.59
2018-04-25T10:42:31.046Z,100664.13
2018-04-25T10:47:25.450Z,100662.30
2018-04-25T10:52:19.840Z,100672.70
2018-04-25T10:57:14.257Z,100670.09
2018-04-25T11:02:08.384Z,100678.28
2018-04-25T11:07:02.964Z,100683.95
2018-04-25T11:11:57.329Z,100679.78
2018-04-25T11:16:51.712Z,100672.31
2018-04-25T11:21:47.006Z,100667.08
2018-04-25T11:26:41.218Z,100657.33
2018-04-25T11:31:35.782Z,100663.59
2018-04-25T11:36:30.186Z,100659.05
2018-04-25T11:41:24.553Z,100649.20
2018-04-25T11:46:19.704Z,100638.16
2018-04-25T11:51:14.109Z,100646.61
2018-04-25T11:56:08.460Z,100646.20
2018-04-25T12:01:02.856Z,100660.08
2018-04-25T12:05:57.521Z,100665.25
2018-04-25T12:10:51.927Z,100672.48
2018-04-25T12:15:46.346Z,100673.08
2018-04-25T12:20:40.513Z,100675.73
2018-04-25T12:25:35.125Z,100681.64
2018-04-25T12:30:29.857Z,100684.96
2018-04-25T12:35:24.261Z,100684.85
2018-04-25T12:40:18.716Z,100694.20
2018-04-25T12:45:13.933Z,100708.00
2018-04-25T12:50:09.257Z,100708.78
2018-04-25T12:55:04.475Z,100720.14
2018-04-25T12:59:58.861Z,100712.02
2018-04-25T13:04:53.280Z,100722.08
2018-04-25T13:09:48.463Z,100708.31
2018-04-25T13:14:43.133Z,100711.18
2018-04-25T13:19:38.401Z,100721.56
2018-04-25T13:24:32.785Z,100718.27
2018-04-25T13:29:26.929Z,100720.75
2018-04-25T13:34:21.291Z,100707.34
2018-04-25T13:39:15.676Z,100721.18
2018-04-25T13:44:10.048Z,100716.94
2018-04-25T13:49:04.610Z,100707.77
2018-04-25T13:53:59.006Z,100706.47
2018-04-25T13:58:53.664Z,100706.42
2018-04-25T14:03:48.031Z,100717.25
2018-04-25T14:08:44.212Z,100718.99
2018-04-25T14:13:39.476Z,100713.77
2018-04-25T14:18:33.863Z,100731.89
2018-04-25T14:23:28.230Z,100725.70
2018-04-25T14:28:22.665Z,100720.31
2018-04-25T14:33:17.068Z,100707.09
2018-04-25T14:38:12.190Z,100705.39
2018-04-25T14:43:07.453Z,100705.08
2018-04-25T14:48:01.896Z,100697.55
2018-04-25T14:52:57.074Z,100696.94
2018-04-25T14:57:51.448Z,100687.81
2018-04-25T15:02:45.819Z,100682.82
2018-04-25T15:07:40.283Z,100674.72
2018-04-25T15:12:34.640Z,100673.73
2018-04-25T15:17:29.833Z,100674.01
2018-04-25T15:22:24.234Z,100676.41
2018-04-25T15:27:18.828Z,100678.61
2018-04-25T15:32:13.276Z,100691.03
2018-04-25T15:37:08.444Z,100689.51
2018-04-25T15:42:03.380Z,100688.37
2018-04-25T15:46:58.046Z,100683.86
2018-04-25T15:51:53.292Z,100681.02
2018-04-25T15:56:47.740Z,100674.89
2018-04-25T16:01:43.249Z,100665.60
2018-04-25T16:06:38.549Z,100668.75
2018-04-25T16:11:33.108Z,100676.52
2018-04-25T16:16:28.661Z,100673.05
2018-04-25T16:21:23.036Z,100669.75
2018-04-25T16:26:18.210Z,100676.08
2018-04-25T16:31:16.741Z,100670.08
2018-04-25T16:36:11.948Z,100676.20
2018-04-25T16:41:06.649Z,100673.09
2018-04-25T16:46:01.055Z,100663.02
2018-04-25T16:50:55.778Z,100665.34
2018-04-25T16:55:51.099Z,100652.63
2018-04-25T17:00:45.487Z,100665.77
2018-04-25T17:05:39.932Z,100666.29
2018-04-25T17:10:35.078Z,100666.83
2018-04-25T17:15:30.337Z,100668.28
2018-04-25T17:20:24.708Z,100671.59
2018-04-25T17:25:18.932Z,100664.92
2018-04-25T17:30:13.265Z,100662.55
2018-04-25T17:35:07.899Z,100663.91
2018-04-25T17:40:03.078Z,100653.77
2018-04-25T17:44:57.631Z,100661.80
2018-04-25T17:49:52.692Z,100671.19
2018-04-25T17:54:47.065Z,100673.19
2018-04-25T17:59:41.805Z,100673.30
2018-04-25T18:04:36.241Z,100663.34
2018-04-25T18:09:30.671Z,100661.53
2018-04-25T18:14:25.611Z,100668.25
2018-04-25T18:19:19.970Z,100680.64
2018-04-25T18:24:14.586Z,100686.65
2018-04-25T18:29:09.153Z,100687.03
2018-04-25T18:34:03.717Z,100700.02
2018-04-25T18:38:58.837Z,100708.73
2018-04-25T18:43:54.271Z,100714.73
2018-04-25T18:48:48.863Z,100717.91
2018-04-25T18:53:44.337Z,100721.78
2018-04-25T18:58:38.720Z,100726.64
2018-04-25T19:03:33.117Z,100731.45
2018-04-25T19:08:27.678Z,100737.14
2018-04-25T19:13:22.344Z,100747.05
2018-04-25T19:18:16.745Z,100756.29
2018-04-25T19:23:11.106Z,100760.96
2018-04-25T19:28:05.456Z,100763.23
2018-04-25T19:33:00.042Z,100772.56
2018-04-25T19:37:55.359Z,100781.70
2018-04-25T19:42:50.486Z,100781.97
2018-04-25T19:47:45.462Z,100786.25
2018-04-25T19:52:40.474Z,100793.13
2018-04-25T19:57:36.480Z,100803.01
2018-04-25T20:02:31.144Z,100806.64
2018-04-25T20:07:26.068Z,100814.38
2018-04-25T20:12:21.173Z,100816.70
2018-04-25T20:17:15.845Z,100819.36
2018-04-25T20:22:10.223Z,100827.97
2018-04-25T20:27:04.657Z,100832.59
2018-04-25T20:31:59.011Z,100841.84
2018-04-25T20:36:54.216Z,100848.05
2018-04-25T20:41:49.342Z,100853.44
2018-04-25T20:46:43.734Z,100853.63
2018-04-25T20:51:38.129Z,100858.47
2018-04-25T20:56:33.083Z,100857.75
2018-04-25T21:01:28.277Z,100852.60
2018-04-25T21:06:22.961Z,100851.31
2018-04-25T21:11:17.586Z,100860.01
2018-04-25T21:16:11.983Z,100863.34
2018-04-25T21:21:06.515Z,100871.13
2018-04-25T21:26:01.124Z,100869.53
2018-04-25T21:30:55.571Z,100874.13
2018-04-25T21:35:50.393Z,100878.28
2018-04-25T21:40:44.940Z,100883.25
2018-04-25T21:45:39.315Z,100881.61
2018-04-25T21:50:33.766Z,100884.74
2018-04-25T21:55:28.970Z,100883.98
2018-04-25T22:00:23.350Z,100877.55
2018-04-25T22:05:17.801Z,100884.08
2018-04-25T22:10:12.985Z,100883.77
2018-04-25T22:15:07.422Z,100894.46
2018-04-25T22:20:02.632Z,100899.27
2018-04-25T22:24:57.092Z,100897.86
2018-04-25T22:29:51.348Z,100896.39
2018-04-25T22:34:45.900Z,100899.13
2018-04-25T22:39:40.318Z,100906.95
2018-04-25T22:44:34.686Z,100910.84
2018-04-25T22:49:29.897Z,100910.41
2018-04-25T22:54:25.216Z,100919.13
2018-04-25T22:59:20.386Z,100910.50
2018-04-25T23:04:14.784Z,100904.61
2018-04-25T23:09:09.123Z,100899.28
2018-04-25T23:14:03.499Z,100901.92
2018-04-25T23:18:57.851Z,100903.59
2018-04-25T23:23:53.230Z,100905.81
2018-04-25T23:28:47.828Z,100908.65
2018-04-25T23:33:42.380Z,100914.51
2018-04-25T23:38:36.839Z,100911.27
2018-04-25T23:43:31.200Z,100909.38
2018-04-25T23:48:26.460Z,100910.98
2018-04-25T23:53:20.834Z,100907.93
2018-04-25T23:58:15.944Z,100911.70
